createdAt,value
2019-05-30T00:00:17.486Z,1011.43
2019-05-30T00:01:17.106Z,1011.41
2019-05-30T00:02:22.632Z,1011.40
2019-05-30T00:03:28.128Z,1011.40
2019-05-30T00:04:33.673Z,1011.39
2019-05-30T00:05:39.194Z,1011.36
2019-05-30T00:06:44.674Z,1011.40
2019-05-30T00:07:50.177Z,1011.41
2019-05-30T00:08:56.340Z,1011.40
2019-05-30T00:10:01.213Z,1011.39
2019-05-30T00:11:06.717Z,1011.38
2019-05-30T00:12:12.227Z,1011.39
2019-05-30T00:13:17.753Z,1011.43
2019-05-30T00:14:23.261Z,1011.40
2019-05-30T00:15:28.757Z,1011.43
2019-05-30T00:16:34.289Z,1011.38
2019-05-30T00:17:39.791Z,1011.36
2019-05-30T00:18:45.299Z,1011.41
2019-05-30T00:19:50.962Z,1011.39
2019-05-30T00:20:56.715Z,1011.39
2019-05-30T00:22:03.730Z,1011.39
2019-05-30T00:23:07.361Z,1011.43
2019-05-30T00:24:12.872Z,1011.40
2019-05-30T00:25:18.366Z,1011.39
2019-05-30T00:26:23.877Z,1011.39
2019-05-30T00:27:29.403Z,1011.41
2019-05-30T00:28:34.905Z,1011.39
2019-05-30T00:29:40.442Z,1011.41
2019-05-30T00:30:45.930Z,1011.38
2019-05-30T00:31:51.442Z,1011.39
2019-05-30T00:32:57.320Z,1011.34
2019-05-30T00:34:02.946Z,1011.35
2019-05-30T00:35:07.979Z,1011.36
2019-05-30T00:36:13.493Z,1011.34
2019-05-30T00:37:19.005Z,1011.34
2019-05-30T00:38:24.528Z,1011.33
2019-05-30T00:39:30.028Z,1011.35
2019-05-30T00:40:35.539Z,1011.33
2019-05-30T00:41:41.063Z,1011.33
2019-05-30T00:42:46.568Z,1011.32
2019-05-30T00:43:52.077Z,1011.33
2019-05-30T00:44:57.908Z,1011.35
2019-05-30T00:46:04.117Z,1011.33
2019-05-30T00:47:08.602Z,1011.32
2019-05-30T00:48:14.119Z,1011.35
2019-05-30T00:49:19.632Z,1011.35
2019-05-30T00:50:25.147Z,1011.36
2019-05-30T00:51:30.655Z,1011.34
2019-05-30T00:52:36.178Z,1011.37
2019-05-30T00:53:41.676Z,1011.35
2019-05-30T00:54:47.189Z,1011.38
2019-05-30T00:55:52.744Z,1011.38
2019-05-30T00:56:58.593Z,1011.37
2019-05-30T00:58:04.824Z,1011.38
2019-05-30T00:59:09.244Z,1011.35
2019-05-30T01:00:14.751Z,1011.37
2019-05-30T01:01:20.275Z,1011.36
2019-05-30T01:02:25.773Z,1011.36
2019-05-30T01:03:31.280Z,1011.36
2019-05-30T01:04:36.794Z,1011.34
2019-05-30T01:05:42.334Z,1011.33
2019-05-30T01:06:47.825Z,1011.33
2019-05-30T01:07:53.333Z,1011.28
2019-05-30T01:08:59.107Z,1011.29
2019-05-30T01:10:05.225Z,1011.28
2019-05-30T01:11:09.879Z,1011.31
2019-05-30T01:12:15.386Z,1011.32
2019-05-30T01:13:20.896Z,1011.28
2019-05-30T01:14:26.412Z,1011.30
2019-05-30T01:15:31.921Z,1011.32
2019-05-30T01:16:37.434Z,1011.30
2019-05-30T01:17:42.942Z,1011.31
2019-05-30T01:18:48.456Z,1011.33
2019-05-30T01:19:53.966Z,1011.27
2019-05-30T01:20:59.477Z,1011.29
2019-05-30T01:22:05.545Z,1011.25
2019-05-30T01:23:10.504Z,1011.26
2019-05-30T01:24:16.015Z,1011.27
2019-05-30T01:25:21.535Z,1011.27
2019-05-30T01:26:27.045Z,1011.27
2019-05-30T01:27:32.558Z,1011.28
2019-05-30T01:28:38.071Z,1011.29
2019-05-30T01:29:43.579Z,1011.24
2019-05-30T01:30:59.648Z,1011.25
2019-05-30T01:31:54.604Z,1011.31
2019-05-30T01:33:00.123Z,1011.32
2019-05-30T01:34:05.904Z,1011.30
2019-05-30T01:35:11.150Z,1011.33
2019-05-30T01:36:16.650Z,1011.32
2019-05-30T01:37:22.171Z,1011.36
2019-05-30T01:38:27.678Z,1011.36
2019-05-30T01:39:33.187Z,1011.32
2019-05-30T01:40:38.736Z,1011.37
2019-05-30T01:41:44.222Z,1011.34
2019-05-30T01:42:49.736Z,1011.33
2019-05-30T01:43:55.259Z,1011.36
2019-05-30T01:45:02.229Z,1011.38
2019-05-30T01:46:06.261Z,1011.36
2019-05-30T01:47:11.783Z,1011.33
2019-05-30T01:48:17.290Z,1011.32
2019-05-30T01:49:22.805Z,1011.29
2019-05-30T01:50:28.318Z,1011.32
2019-05-30T01:51:33.825Z,1011.33
2019-05-30T01:52:39.335Z,1011.29
2019-05-30T01:53:44.866Z,1011.30
2019-05-30T01:54:50.363Z,1011.30
2019-05-30T01:55:55.874Z,1011.29
2019-05-30T01:57:02.530Z,1011.29
2019-05-30T01:58:07.242Z,1011.26
2019-05-30T01:59:12.415Z,1011.26
2019-05-30T02:00:21.151Z,1011.29
2019-05-30T02:01:25.441Z,1011.27
2019-05-30T02:02:28.945Z,1011.28
2019-05-30T02:03:34.456Z,1011.24
2019-05-30T02:04:39.970Z,1011.26
2019-05-30T02:05:45.487Z,1011.25
2019-05-30T02:06:50.998Z,1011.22
2019-05-30T02:07:56.526Z,1011.22
2019-05-30T02:09:03.010Z,1011.23
2019-05-30T02:10:07.537Z,1011.23
2019-05-30T02:11:13.051Z,1011.20
2019-05-30T02:12:18.561Z,1011.23
2019-05-30T02:13:24.077Z,1011.22
2019-05-30T02:14:29.589Z,1011.22
2019-05-30T02:15:35.098Z,1011.21
2019-05-30T02:16:40.609Z,1011.22
2019-05-30T02:17:46.155Z,1011.21
2019-05-30T02:18:51.634Z,1011.18
2019-05-30T02:19:57.158Z,1011.18
2019-05-30T02:21:03.710Z,1011.17
2019-05-30T02:22:08.188Z,1011.23
2019-05-30T02:23:13.689Z,1011.21
2019-05-30T02:24:19.197Z,1011.23
2019-05-30T02:25:24.714Z,1011.21
2019-05-30T02:26:30.224Z,1011.19
2019-05-30T02:27:35.737Z,1011.25
2019-05-30T02:28:41.251Z,1011.16
2019-05-30T02:29:46.757Z,1011.22
2019-05-30T02:30:52.272Z,1011.21
2019-05-30T02:31:57.787Z,1011.20
2019-05-30T02:33:05.161Z,1011.21
2019-05-30T02:34:10.119Z,1011.20
2019-05-30T02:35:14.325Z,1011.20
2019-05-30T02:36:19.842Z,1011.23
2019-05-30T02:37:25.347Z,1011.25
2019-05-30T02:38:30.861Z,1011.26
2019-05-30T02:39:36.375Z,1011.29
2019-05-30T02:40:41.946Z,1011.28
2019-05-30T02:41:47.398Z,1011.29
2019-05-30T02:42:52.920Z,1011.31
2019-05-30T02:43:58.421Z,1011.34
2019-05-30T02:45:05.494Z,1011.34
2019-05-30T02:46:10.612Z,1011.34
2019-05-30T02:47:14.982Z,1011.38
2019-05-30T02:48:20.463Z,1011.39
2019-05-30T02:49:25.996Z,1011.35
2019-05-30T02:50:31.499Z,1011.37
2019-05-30T02:51:37.004Z,1011.37
2019-05-30T02:52:42.530Z,1011.34
2019-05-30T02:53:48.031Z,1011.33
2019-05-30T02:54:53.551Z,1011.39
2019-05-30T02:55:59.061Z,1011.35
2019-05-30T02:57:05.548Z,1011.38
2019-05-30T02:58:10.503Z,1011.38
2019-05-30T02:59:15.589Z,1011.38
2019-05-30T03:00:21.102Z,1011.37
2019-05-30T03:01:26.623Z,1011.39
2019-05-30T03:02:32.133Z,1011.37
2019-05-30T03:03:37.645Z,1011.38
2019-05-30T03:04:43.154Z,1011.41
2019-05-30T03:05:48.672Z,1011.45
2019-05-30T03:06:54.181Z,1011.40
2019-05-30T03:08:01.780Z,1011.46
2019-05-30T03:09:06.356Z,1011.44
2019-05-30T03:10:14.668Z,1011.44
2019-05-30T03:11:16.238Z,1011.46
2019-05-30T03:12:21.747Z,1011.47
2019-05-30T03:13:27.254Z,1011.48
2019-05-30T03:14:32.771Z,1011.49
2019-05-30T03:15:38.282Z,1011.45
2019-05-30T03:16:43.788Z,1011.49
2019-05-30T03:17:49.316Z,1011.48
2019-05-30T03:18:54.819Z,1011.46
2019-05-30T03:20:02.633Z,1011.44
2019-05-30T03:21:08.160Z,1011.42
2019-05-30T03:22:13.495Z,1011.39
2019-05-30T03:23:16.868Z,1011.36
2019-05-30T03:24:22.380Z,1011.38
2019-05-30T03:25:27.904Z,1011.37
2019-05-30T03:26:33.415Z,1011.34
2019-05-30T03:27:38.931Z,1011.35
2019-05-30T03:28:44.434Z,1011.36
2019-05-30T03:29:49.937Z,1011.38
2019-05-30T03:30:55.450Z,1011.37
2019-05-30T03:32:45.036Z,1011.33
2019-05-30T03:33:19.205Z,1011.37
2019-05-30T03:34:22.793Z,1011.38
2019-05-30T03:35:26.813Z,1011.36
2019-05-30T03:36:29.795Z,1011.37
2019-05-30T03:37:30.563Z,1011.37
2019-05-30T03:38:34.055Z,1011.39
2019-05-30T03:39:39.549Z,1011.41
2019-05-30T03:40:45.068Z,1011.42
2019-05-30T03:41:50.574Z,1011.42
2019-05-30T03:42:56.087Z,1011.44
2019-05-30T03:44:01.608Z,1011.40
2019-05-30T03:45:10.724Z,1011.41
2019-05-30T03:46:14.470Z,1011.43
2019-05-30T03:47:18.135Z,1011.45
2019-05-30T03:48:23.741Z,1011.39
2019-05-30T03:49:29.163Z,1011.35
2019-05-30T03:50:34.682Z,1011.40
2019-05-30T03:51:40.182Z,1011.42
2019-05-30T03:52:45.712Z,1011.39
2019-05-30T03:53:51.213Z,1011.44
2019-05-30T03:54:56.736Z,1011.43
2019-05-30T03:56:02.234Z,1011.45
2019-05-30T03:57:09.007Z,1011.44
2019-05-30T03:58:14.319Z,1011.45
2019-05-30T03:59:18.779Z,1011.50
2019-05-30T04:00:24.298Z,1011.41
2019-05-30T04:01:29.798Z,1011.49
2019-05-30T04:02:55.204Z,1011.45
2019-05-30T04:03:40.831Z,1011.47
2019-05-30T04:04:46.349Z,1011.44
2019-05-30T04:05:51.853Z,1011.43
2019-05-30T04:06:57.360Z,1011.46
2019-05-30T04:08:02.894Z,1011.46
2019-05-30T04:09:09.932Z,1011.45
2019-05-30T04:10:15.718Z,1011.44
2019-05-30T04:11:19.825Z,1011.50
2019-05-30T04:12:24.927Z,1011.46
2019-05-30T04:13:30.443Z,1011.48
2019-05-30T04:14:35.952Z,1011.47
2019-05-30T04:15:41.460Z,1011.51
2019-05-30T04:16:46.984Z,1011.54
2019-05-30T04:17:52.484Z,1011.52
2019-05-30T04:18:58.005Z,1011.54
2019-05-30T04:20:03.515Z,1011.51
2019-05-30T04:21:10.842Z,1011.58
2019-05-30T04:22:15.524Z,1011.57
2019-05-30T04:23:20.059Z,1011.61
2019-05-30T04:24:25.564Z,1011.65
2019-05-30T04:25:31.076Z,1011.61
2019-05-30T04:26:36.593Z,1011.63
2019-05-30T04:27:42.107Z,1011.59
2019-05-30T04:28:47.615Z,1011.62
2019-05-30T04:29:53.132Z,1011.64
2019-05-30T04:30:58.642Z,1011.67
2019-05-30T04:32:04.164Z,1011.67
2019-05-30T04:33:19.268Z,1011.70
2019-05-30T04:34:16.856Z,1011.69
2019-05-30T04:35:20.718Z,1011.71
2019-05-30T04:36:26.201Z,1011.73
2019-05-30T04:37:31.714Z,1011.69
2019-05-30T04:38:37.231Z,1011.67
2019-05-30T04:39:42.740Z,1011.65
2019-05-30T04:40:48.254Z,1011.64
2019-05-30T04:41:53.766Z,1011.65
2019-05-30T04:42:59.293Z,1011.68
2019-05-30T04:44:04.802Z,1011.67
2019-05-30T04:45:11.819Z,1011.62
2019-05-30T04:46:17.260Z,1011.62
2019-05-30T04:47:21.354Z,1011.62
2019-05-30T04:48:26.847Z,1011.60
2019-05-30T04:49:32.363Z,1011.59
2019-05-30T04:50:37.869Z,1011.60
2019-05-30T04:51:43.399Z,1011.60
2019-05-30T04:52:48.896Z,1011.64
2019-05-30T04:53:54.410Z,1011.59
2019-05-30T04:54:59.936Z,1011.65
2019-05-30T04:56:05.440Z,1011.63
2019-05-30T04:57:12.602Z,1011.67
2019-05-30T04:58:17.955Z,1011.67
2019-05-30T04:59:22.272Z,1011.68
2019-05-30T05:00:27.493Z,1011.67
2019-05-30T05:01:33.001Z,1011.67
2019-05-30T05:02:38.515Z,1011.69
2019-05-30T05:03:46.521Z,1011.66
2019-05-30T05:04:49.542Z,1011.69
2019-05-30T05:05:55.065Z,1011.69
2019-05-30T05:07:00.563Z,1011.71
2019-05-30T05:08:06.076Z,1011.68
2019-05-30T05:09:12.049Z,1011.69
2019-05-30T05:10:18.233Z,1011.68
2019-05-30T05:11:24.995Z,1011.66
2019-05-30T05:12:28.136Z,1011.73
2019-05-30T05:13:33.651Z,1011.64
2019-05-30T05:14:39.152Z,1011.66
2019-05-30T05:15:44.670Z,1011.66
2019-05-30T05:16:50.178Z,1011.66
2019-05-30T05:17:55.687Z,1011.66
2019-05-30T05:19:01.213Z,1011.68
2019-05-30T05:20:06.725Z,1011.70
2019-05-30T05:21:12.836Z,1011.62
2019-05-30T05:22:19.034Z,1011.61
2019-05-30T05:23:23.636Z,1011.67
2019-05-30T05:24:28.782Z,1011.66
2019-05-30T05:25:34.298Z,1011.67
2019-05-30T05:26:39.789Z,1011.68
2019-05-30T05:27:45.310Z,1011.70
2019-05-30T05:28:50.823Z,1011.71
2019-05-30T05:29:56.338Z,1011.68
2019-05-30T05:31:01.994Z,1011.71
2019-05-30T05:32:07.368Z,1011.70
2019-05-30T05:33:12.874Z,1011.71
2019-05-30T05:34:18.613Z,1011.65
2019-05-30T05:35:25.019Z,1011.72
2019-05-30T05:36:29.407Z,1011.63
2019-05-30T05:37:34.922Z,1011.63
2019-05-30T05:38:40.439Z,1011.66
2019-05-30T05:39:45.953Z,1011.68
2019-05-30T05:40:51.462Z,1011.65
2019-05-30T05:41:56.983Z,1011.70
2019-05-30T05:43:02.492Z,1011.69
2019-05-30T05:44:07.996Z,1011.63
2019-05-30T05:45:13.514Z,1011.64
2019-05-30T05:46:19.028Z,1011.63
2019-05-30T05:47:24.642Z,1011.63
2019-05-30T05:48:30.055Z,1011.62
2019-05-30T05:49:35.563Z,1011.60
2019-05-30T05:50:41.087Z,1011.58
2019-05-30T05:51:46.596Z,1011.65
2019-05-30T05:52:52.108Z,1011.65
2019-05-30T05:53:57.634Z,1011.62
2019-05-30T05:55:03.138Z,1011.62
2019-05-30T05:56:08.641Z,1011.68
2019-05-30T05:57:14.162Z,1011.70
2019-05-30T05:58:20.792Z,1011.72
2019-05-30T05:59:25.278Z,1011.72
2019-05-30T06:00:30.709Z,1011.69
2019-05-30T06:01:36.223Z,1011.71
2019-05-30T06:02:41.733Z,1011.70
2019-05-30T06:03:47.234Z,1011.71
2019-05-30T06:04:52.752Z,1011.74
2019-05-30T06:05:58.266Z,1011.76
2019-05-30T06:07:03.779Z,1011.78
2019-05-30T06:08:09.291Z,1011.80
2019-05-30T06:09:14.809Z,1011.85
2019-05-30T06:10:21.639Z,1011.87
2019-05-30T06:11:25.832Z,1011.85
2019-05-30T06:12:31.349Z,1011.87
2019-05-30T06:13:36.858Z,1011.85
2019-05-30T06:14:42.371Z,1011.87
2019-05-30T06:15:47.890Z,1011.86
2019-05-30T06:16:55.728Z,1011.89
2019-05-30T06:17:58.916Z,1011.86
2019-05-30T06:19:04.432Z,1011.92
2019-05-30T06:20:09.939Z,1011.89
2019-05-30T06:21:15.449Z,1011.83
2019-05-30T06:22:21.460Z,1011.88
2019-05-30T06:23:27.675Z,1011.86
2019-05-30T06:24:32.001Z,1011.83
2019-05-30T06:25:37.511Z,1011.89
2019-05-30T06:26:43.023Z,1011.86
2019-05-30T06:27:48.536Z,1011.81
2019-05-30T06:28:54.048Z,1011.82
2019-05-30T06:29:59.604Z,1011.83
2019-05-30T06:31:05.080Z,1011.89
2019-05-30T06:32:10.584Z,1011.85
2019-05-30T06:33:16.103Z,1011.88
2019-05-30T06:34:34.874Z,1011.89
2019-05-30T06:35:27.511Z,1011.92
2019-05-30T06:36:32.651Z,1011.95
2019-05-30T06:37:38.158Z,1011.97
2019-05-30T06:38:43.667Z,1011.94
2019-05-30T06:39:49.190Z,1011.98
2019-05-30T06:40:54.696Z,1011.94
2019-05-30T06:42:00.208Z,1011.95
2019-05-30T06:43:05.734Z,1011.97
2019-05-30T06:44:11.246Z,1011.97
2019-05-30T06:45:16.753Z,1011.97
2019-05-30T06:46:22.263Z,1011.97
2019-05-30T06:47:28.479Z,1012.00
2019-05-30T06:48:33.315Z,1011.93
2019-05-30T06:49:38.826Z,1011.99
2019-05-30T06:50:44.313Z,1012.00
2019-05-30T06:51:49.842Z,1012.01
2019-05-30T06:52:55.352Z,1011.99
2019-05-30T06:54:00.868Z,1011.99
2019-05-30T06:55:06.371Z,1012.02
2019-05-30T06:56:11.889Z,1011.98
2019-05-30T06:57:17.413Z,1012.01
2019-05-30T06:58:40.105Z,1011.97
2019-05-30T06:59:29.657Z,1011.97
2019-05-30T07:00:33.940Z,1011.96
2019-05-30T07:01:39.448Z,1011.98
2019-05-30T07:02:45.006Z,1011.99
2019-05-30T07:03:50.615Z,1011.97
2019-05-30T07:04:56.695Z,1012.01
2019-05-30T07:06:02.010Z,1011.95
2019-05-30T07:07:07.227Z,1012.01
2019-05-30T07:08:12.539Z,1012.02
2019-05-30T07:09:18.048Z,1011.95
2019-05-30T07:10:24.784Z,1011.96
2019-05-30T07:11:29.372Z,1012.01
2019-05-30T07:12:34.597Z,1012.01
2019-05-30T07:13:40.116Z,1011.98
2019-05-30T07:14:45.619Z,1012.04
2019-05-30T07:15:51.135Z,1012.01
2019-05-30T07:16:56.639Z,1012.00
2019-05-30T07:18:02.164Z,1012.05
2019-05-30T07:19:07.666Z,1012.04
2019-05-30T07:20:13.189Z,1012.04
2019-05-30T07:21:18.702Z,1012.11
2019-05-30T07:22:24.210Z,1012.07
2019-05-30T07:23:30.187Z,1012.17
2019-05-30T07:24:35.238Z,1012.15
2019-05-30T07:25:40.778Z,1012.23
2019-05-30T07:26:46.265Z,1012.20
2019-05-30T07:27:51.780Z,1012.23
2019-05-30T07:29:00.540Z,1012.26
2019-05-30T07:30:02.818Z,1012.22
2019-05-30T07:31:08.331Z,1012.29
2019-05-30T07:32:13.837Z,1012.33
2019-05-30T07:33:19.348Z,1012.38
2019-05-30T07:34:25.898Z,1012.40
2019-05-30T07:35:30.376Z,1012.40
2019-05-30T07:36:35.889Z,1012.41
2019-05-30T07:37:41.400Z,1012.38
2019-05-30T07:38:46.926Z,1012.35
2019-05-30T07:39:52.530Z,1012.48
2019-05-30T07:40:57.950Z,1012.39
2019-05-30T07:42:06.596Z,1012.41
2019-05-30T07:43:08.970Z,1012.44
2019-05-30T07:44:14.484Z,1012.50
2019-05-30T07:45:20.017Z,1012.47
2019-05-30T07:46:26.571Z,1012.46
2019-05-30T07:47:32.131Z,1012.43
2019-05-30T07:48:36.539Z,1012.52
2019-05-30T07:49:42.054Z,1012.48
2019-05-30T07:50:47.563Z,1012.47
2019-05-30T07:51:53.074Z,1012.52
2019-05-30T07:52:58.591Z,1012.53
2019-05-30T07:54:04.110Z,1012.47
2019-05-30T07:55:09.618Z,1012.52
2019-05-30T07:56:15.146Z,1012.53
2019-05-30T07:57:20.649Z,1012.53
2019-05-30T07:58:27.016Z,1012.56
2019-05-30T07:59:32.461Z,1012.51
2019-05-30T08:00:37.640Z,1012.54
2019-05-30T08:01:42.786Z,1012.59
2019-05-30T08:02:48.221Z,1012.53
2019-05-30T08:03:53.727Z,1012.57
2019-05-30T08:04:59.289Z,1012.59
2019-05-30T08:06:04.768Z,1012.65
2019-05-30T08:07:10.271Z,1012.61
2019-05-30T08:08:15.795Z,1012.57
2019-05-30T08:09:21.302Z,1012.57
2019-05-30T08:10:27.780Z,1012.62
2019-05-30T08:11:32.902Z,1012.58
2019-05-30T08:12:38.406Z,1012.54
2019-05-30T08:13:43.364Z,1012.52
2019-05-30T08:14:48.872Z,1012.57
2019-05-30T08:15:54.386Z,1012.56
2019-05-30T08:16:59.905Z,1012.55
2019-05-30T08:18:05.409Z,1012.53
2019-05-30T08:19:10.930Z,1012.60
2019-05-30T08:20:16.451Z,1012.59
2019-05-30T08:21:21.949Z,1012.58
2019-05-30T08:22:27.926Z,1012.51
2019-05-30T08:23:34.149Z,1012.55
2019-05-30T08:24:38.980Z,1012.53
2019-05-30T08:25:44.021Z,1012.61
2019-05-30T08:26:49.521Z,1012.64
2019-05-30T08:27:55.041Z,1012.62
2019-05-30T08:29:00.550Z,1012.60
2019-05-30T08:30:06.058Z,1012.58
2019-05-30T08:31:11.607Z,1012.58
2019-05-30T08:32:17.094Z,1012.58
2019-05-30T08:33:22.608Z,1012.55
2019-05-30T08:34:28.446Z,1012.57
2019-05-30T08:35:43.599Z,1012.60
2019-05-30T08:36:39.243Z,1012.62
2019-05-30T08:37:44.662Z,1012.54
2019-05-30T08:38:50.178Z,1012.62
2019-05-30T08:39:55.686Z,1012.56
2019-05-30T08:41:01.213Z,1012.58
2019-05-30T08:42:06.723Z,1012.56
2019-05-30T08:43:12.245Z,1012.49
2019-05-30T08:44:17.750Z,1012.53
2019-05-30T08:45:23.307Z,1012.55
2019-05-30T08:46:30.147Z,1012.56
2019-05-30T08:47:34.298Z,1012.50
2019-05-30T08:48:40.401Z,1012.51
2019-05-30T08:49:45.330Z,1012.46
2019-05-30T08:50:50.836Z,1012.54
2019-05-30T08:51:56.344Z,1012.52
2019-05-30T08:53:01.858Z,1012.51
2019-05-30T08:54:07.384Z,1012.41
2019-05-30T08:55:12.889Z,1012.44
2019-05-30T08:56:18.406Z,1012.36
2019-05-30T08:57:23.925Z,1012.35
2019-05-30T08:58:30.392Z,1012.35
2019-05-30T08:59:34.948Z,1012.39
2019-05-30T09:00:40.470Z,1012.33
2019-05-30T09:01:47.101Z,1012.38
2019-05-30T09:02:51.492Z,1012.34
2019-05-30T09:03:57.006Z,1012.32
2019-05-30T09:05:06.585Z,1012.32
2019-05-30T09:06:08.036Z,1012.33
2019-05-30T09:07:13.565Z,1012.34
2019-05-30T09:08:19.060Z,1012.38
2019-05-30T09:09:24.579Z,1012.40
2019-05-30T09:10:30.085Z,1012.45
2019-05-30T09:11:35.909Z,1012.33
2019-05-30T09:12:45.180Z,1012.36
2019-05-30T09:13:46.843Z,1012.35
2019-05-30T09:14:52.152Z,1012.34
2019-05-30T09:15:57.664Z,1012.35
2019-05-30T09:17:03.170Z,1012.29
2019-05-30T09:18:08.709Z,1012.31
2019-05-30T09:19:14.202Z,1012.24
2019-05-30T09:20:19.724Z,1012.24
2019-05-30T09:21:25.236Z,1012.28
2019-05-30T09:22:30.745Z,1012.30
2019-05-30T09:23:38.287Z,1012.34
2019-05-30T09:24:42.106Z,1012.36
2019-05-30T09:25:49.367Z,1012.32
2019-05-30T09:26:52.818Z,1012.35
2019-05-30T09:27:58.347Z,1012.34
2019-05-30T09:29:03.974Z,1012.36
2019-05-30T09:30:09.364Z,1012.31
2019-05-30T09:31:14.863Z,1012.34
2019-05-30T09:32:20.395Z,1012.35
2019-05-30T09:33:26.801Z,1012.35
2019-05-30T09:34:31.415Z,1012.36
2019-05-30T09:35:36.926Z,1012.35
2019-05-30T09:36:42.742Z,1012.33
2019-05-30T09:37:47.968Z,1012.40
2019-05-30T09:38:53.492Z,1012.31
2019-05-30T09:39:58.998Z,1012.32
2019-05-30T09:41:04.500Z,1012.35
2019-05-30T09:42:10.016Z,1012.34
2019-05-30T09:43:15.537Z,1012.39
2019-05-30T09:44:21.056Z,1012.42
2019-05-30T09:45:26.567Z,1012.44
2019-05-30T09:46:32.090Z,1012.56
2019-05-30T09:47:38.311Z,1012.58
2019-05-30T09:48:44.799Z,1012.59
2019-05-30T09:49:48.648Z,1012.61
2019-05-30T09:50:54.141Z,1012.69
2019-05-30T09:51:59.661Z,1012.70
2019-05-30T09:53:05.174Z,1012.76
2019-05-30T09:54:10.687Z,1012.71
2019-05-30T09:55:16.199Z,1012.80
2019-05-30T09:56:21.715Z,1012.71
2019-05-30T09:57:27.237Z,1012.68
2019-05-30T09:58:32.752Z,1012.70
2019-05-30T09:59:38.286Z,1012.71
2019-05-30T10:00:45.466Z,1012.66
2019-05-30T10:01:50.138Z,1012.70
2019-05-30T10:02:54.802Z,1012.66
2019-05-30T10:04:00.324Z,1012.68
2019-05-30T10:05:05.834Z,1012.67
2019-05-30T10:06:11.361Z,1012.64
2019-05-30T10:07:16.877Z,1012.65
2019-05-30T10:08:22.429Z,1012.60
2019-05-30T10:09:28.814Z,1012.61
2019-05-30T10:10:33.409Z,1012.58
2019-05-30T10:11:38.936Z,1012.60
2019-05-30T10:12:45.576Z,1012.58
2019-05-30T10:13:51.212Z,1012.57
2019-05-30T10:14:55.464Z,1012.59
2019-05-30T10:16:01.019Z,1012.60
2019-05-30T10:17:06.514Z,1012.57
2019-05-30T10:18:12.015Z,1012.53
2019-05-30T10:19:17.528Z,1012.52
2019-05-30T10:20:23.049Z,1012.54
2019-05-30T10:21:28.562Z,1012.66
2019-05-30T10:22:34.068Z,1012.60
2019-05-30T10:23:39.586Z,1012.56
2019-05-30T10:24:46.304Z,1012.47
2019-05-30T10:25:51.222Z,1012.56
2019-05-30T10:26:57.300Z,1012.50
2019-05-30T10:28:01.654Z,1012.48
2019-05-30T10:29:07.161Z,1012.49
2019-05-30T10:30:12.681Z,1012.51
2019-05-30T10:31:18.192Z,1012.56
2019-05-30T10:32:23.705Z,1012.58
2019-05-30T10:33:29.247Z,1012.65
2019-05-30T10:34:35.344Z,1012.68
2019-05-30T10:35:40.263Z,1012.68
2019-05-30T10:36:47.206Z,1012.66
2019-05-30T10:37:51.283Z,1012.70
2019-05-30T10:38:56.804Z,1012.76
2019-05-30T10:40:02.328Z,1012.75
2019-05-30T10:41:07.839Z,1012.82
2019-05-30T10:42:13.343Z,1012.79
2019-05-30T10:43:18.882Z,1012.82
2019-05-30T10:44:24.380Z,1012.77
2019-05-30T10:45:29.893Z,1012.79
2019-05-30T10:46:35.416Z,1012.80
2019-05-30T10:47:40.986Z,1012.82
2019-05-30T10:48:47.834Z,1012.82
2019-05-30T10:49:51.966Z,1012.77
2019-05-30T10:50:57.466Z,1012.81
2019-05-30T10:52:02.999Z,1012.70
2019-05-30T10:53:08.511Z,1012.73
2019-05-30T10:54:14.022Z,1012.74
2019-05-30T10:55:19.533Z,1012.80
2019-05-30T10:56:25.848Z,1012.78
2019-05-30T10:57:30.562Z,1012.79
2019-05-30T10:58:36.079Z,1012.81
2019-05-30T10:59:41.591Z,1012.85
2019-05-30T11:00:48.588Z,1012.82
2019-05-30T11:01:53.041Z,1012.90
2019-05-30T11:02:58.139Z,1012.81
2019-05-30T11:04:03.661Z,1012.84
2019-05-30T11:05:09.172Z,1012.82
2019-05-30T11:06:14.705Z,1012.84
2019-05-30T11:07:20.201Z,1012.87
2019-05-30T11:08:25.729Z,1012.87
2019-05-30T11:09:31.244Z,1012.90
2019-05-30T11:10:36.751Z,1012.94
2019-05-30T11:11:42.272Z,1012.96
2019-05-30T11:12:48.323Z,1013.00
2019-05-30T11:13:53.371Z,1012.96
2019-05-30T11:14:58.804Z,1013.05
2019-05-30T11:16:04.323Z,1013.03
2019-05-30T11:17:09.838Z,1013.07
2019-05-30T11:18:15.350Z,1013.03
2019-05-30T11:19:20.868Z,1013.03
2019-05-30T11:20:26.380Z,1013.06
2019-05-30T11:21:31.899Z,1013.02
2019-05-30T11:22:37.482Z,1013.01
2019-05-30T11:23:42.940Z,1012.96
2019-05-30T11:24:48.452Z,1012.98
2019-05-30T11:25:54.864Z,1012.96
2019-05-30T11:26:59.493Z,1012.97
2019-05-30T11:28:04.991Z,1012.94
2019-05-30T11:29:10.567Z,1013.01
2019-05-30T11:30:16.859Z,1012.95
2019-05-30T11:31:21.538Z,1012.98
2019-05-30T11:32:27.054Z,1012.98
2019-05-30T11:33:32.569Z,1013.01
2019-05-30T11:34:38.082Z,1013.05
2019-05-30T11:35:43.610Z,1013.02
2019-05-30T11:36:49.111Z,1013.04
2019-05-30T11:37:55.184Z,1013.04
2019-05-30T11:39:00.138Z,1013.05
2019-05-30T11:40:05.651Z,1013.07
2019-05-30T11:41:11.168Z,1013.05
2019-05-30T11:42:16.692Z,1013.08
2019-05-30T11:43:22.221Z,1013.07
2019-05-30T11:44:27.715Z,1013.05
2019-05-30T11:45:33.241Z,1013.08
2019-05-30T11:46:38.756Z,1013.09
2019-05-30T11:47:44.867Z,1013.09
2019-05-30T11:48:49.782Z,1013.12
2019-05-30T11:49:55.755Z,1013.09
2019-05-30T11:51:00.803Z,1013.11
2019-05-30T11:52:06.322Z,1013.07
2019-05-30T11:53:11.837Z,1013.14
2019-05-30T11:54:17.361Z,1013.09
2019-05-30T11:55:22.876Z,1013.08
2019-05-30T11:56:28.386Z,1013.08
2019-05-30T11:57:33.894Z,1013.11
2019-05-30T11:58:39.410Z,1013.10
2019-05-30T11:59:44.924Z,1013.13
2019-05-30T12:00:50.445Z,1013.09
2019-05-30T12:01:56.424Z,1013.14
2019-05-30T12:03:01.480Z,1013.08
2019-05-30T12:04:06.991Z,1013.12
2019-05-30T12:05:12.502Z,1013.10
2019-05-30T12:06:18.021Z,1013.15
2019-05-30T12:07:35.881Z,1013.15
2019-05-30T12:08:29.050Z,1013.15
2019-05-30T12:09:34.569Z,1013.14
2019-05-30T12:10:40.073Z,1013.12
2019-05-30T12:11:45.593Z,1013.11
2019-05-30T12:12:51.251Z,1013.15
2019-05-30T12:13:57.411Z,1013.13
2019-05-30T12:15:02.155Z,1013.16
2019-05-30T12:16:07.661Z,1013.12
2019-05-30T12:17:13.176Z,1013.11
2019-05-30T12:18:18.708Z,1013.16
2019-05-30T12:19:24.210Z,1013.14
2019-05-30T12:20:29.720Z,1013.13
2019-05-30T12:21:35.880Z,1013.09
2019-05-30T12:22:40.746Z,1013.09
2019-05-30T12:23:46.272Z,1013.10
2019-05-30T12:24:51.789Z,1013.11
2019-05-30T12:25:58.032Z,1013.15
2019-05-30T12:27:02.812Z,1013.16
2019-05-30T12:28:08.327Z,1013.19
2019-05-30T12:29:13.832Z,1013.16
2019-05-30T12:30:19.369Z,1013.13
2019-05-30T12:31:24.866Z,1013.12
2019-05-30T12:32:30.393Z,1013.11
2019-05-30T12:33:35.911Z,1013.12
2019-05-30T12:34:41.426Z,1013.13
2019-05-30T12:35:47.899Z,1013.14
2019-05-30T12:36:52.453Z,1013.11
2019-05-30T12:38:01.602Z,1013.16
2019-05-30T12:39:03.475Z,1013.16
2019-05-30T12:40:09.199Z,1013.14
2019-05-30T12:41:14.522Z,1013.12
2019-05-30T12:42:20.038Z,1013.16
2019-05-30T12:43:25.534Z,1013.14
2019-05-30T12:44:31.051Z,1013.13
2019-05-30T12:45:36.576Z,1013.17
2019-05-30T12:46:42.086Z,1013.13
2019-05-30T12:47:47.600Z,1013.18
2019-05-30T12:48:53.319Z,1013.14
2019-05-30T12:49:59.335Z,1013.17
2019-05-30T12:51:04.142Z,1013.20
2019-05-30T12:52:09.662Z,1013.22
2019-05-30T12:53:15.173Z,1013.23
2019-05-30T12:54:20.713Z,1013.22
2019-05-30T12:55:26.199Z,1013.27
2019-05-30T12:56:31.716Z,1013.23
2019-05-30T12:57:37.240Z,1013.24
2019-05-30T12:58:42.752Z,1013.29
2019-05-30T12:59:48.279Z,1013.27
2019-05-30T13:00:54.609Z,1013.30
2019-05-30T13:01:59.313Z,1013.29
2019-05-30T13:03:04.814Z,1013.29
2019-05-30T13:04:10.326Z,1013.26
2019-05-30T13:05:15.852Z,1013.29
2019-05-30T13:06:21.367Z,1013.31
2019-05-30T13:07:26.886Z,1013.32
2019-05-30T13:08:32.392Z,1013.35
2019-05-30T13:09:37.904Z,1013.35
2019-05-30T13:10:43.421Z,1013.38
2019-05-30T13:11:48.938Z,1013.35